EST,Max TemperatureF,Mean TemperatureF,Min TemperatureF,Max Dew PointF,MeanDew PointF,Min DewpointF,Max Humidity, Mean Humidity, Min Humidity, Max Sea Level PressureIn, Mean Sea Level PressureIn, Min Sea Level PressureIn, Max VisibilityMiles, Mean VisibilityMiles, Min VisibilityMiles, Max Wind SpeedMPH, Mean Wind SpeedMPH, Max Gust SpeedMPH,PrecipitationIn, CloudCover, Events, WindDirDegrees
2011-12-1,46,34,23,30,26,19,93,75,42,30.37,30.31,30.22,10,10,8,12,3,,0.34,0,,136
2011-12-2,51,40,28,36,32,27,93,76,50,30.46,30.40,30.32,10,9,4,7,2,,0.00,1,,121
2011-12-3,60,50,41,37,33,28,76,53,31,30.42,30.32,30.20,10,10,4,16,7,22,0.00,2,,123
2011-12-4,55,52,48,48,41,30,94,71,38,30.19,30.16,30.12,10,8,2,22,14,28,2.08,7,,142
2011-12-5,44,42,39,43,40,37,100,92,87,30.18,30.11,30.05,10,9,4,16,10,23,1.38,8,,318
2011-12-6,39,37,35,37,35,34,93,89,81,30.17,30.13,30.10,10,9,3,15,10,21,0.01,8,,335
2011-12-7,39,34,28,34,28,25,93,79,65,30.22,30.11,30.01,10,10,6,14,8,18,0.00,5,,292
2011-12-8,44,34,24,30,26,23,93,76,49,30.34,30.27,30.22,10,8,2,15,5,,0.00,0,,150
2011-12-9,44,36,28,34,27,23,86,76,57,30.46,30.31,30.22,10,10,6,13,7,17,0.00,3,,255
2011-12-10,35,27,19,23,14,10,80,59,44,30.62,30.54,30.46,10,10,10,12,5,18,0.00,0,,303
2011-12-11,41,30,19,21,17,12,93,63,33,30.58,30.52,30.44,10,10,10,8,2,,0.00,0,,99
2011-12-12,50,36,21,30,25,16,93,67,43,30.47,30.42,30.38,10,10,10,6,1,,0.00,1,,102
2011-12-13,48,40,33,45,37,27,93,85,65,30.49,30.43,30.38,10,7,2,8,3,,0.03,5,,132
2011-12-14,59,52,46,54,48,43,93,86,77,30.32,30.17,29.97,10,7,3,21,9,30,0.10,3,,135
2011-12-15,69,48,35,59,47,27,94,82,68,30.31,30.04,29.90,10,10,6,22,14,29,0.92,7,Thunderstorm,221
2011-12-16,39,36,33,28,27,27,81,72,65,30.39,30.34,30.29,10,10,10,12,7,,0.00,2,,307
2011-12-17,35,34,32,28,27,27,81,78,75,30.31,30.30,30.30,10,10,10,9,8,,0.00,1,,204
2011-12-18,51,38,26,36,31,25,100,79,54,30.35,30.29,30.18,10,8,3,13,5,,0.00,0,,146
2011-12-19,50,46,41,43,37,32,93,72,58,30.16,30.13,30.10,10,10,8,18,11,25,0.02,7,,152
2011-12-20,59,49,41,57,45,36,100,86,71,30.13,29.98,29.79,10,8,1,10,4,16,0.09,5,,95
2011-12-21,59,52,44,57,48,43,94,89,76,30.02,29.85,29.71,10,9,3,21,11,23,0.98,7,,194
2011-12-22,44,42,39,43,41,37,93,90,81,30.15,30.06,29.99,10,7,3,10,3,,0.19,6,,274
2011-12-23,42,38,33,39,34,27,93,83,70,30.39,30.30,30.17,10,9,4,12,9,18,0.00,7,,261
2011-12-24,41,34,28,32,28,25,93,80,65,30.47,30.41,30.36,10,10,6,15,7,,0.00,0,,160
2011-12-25,53,40,28,34,29,25,93,71,41,30.37,30.31,30.22,10,10,10,20,7,26,0.00,0,,184
2011-12-26,42,35,28,32,28,25,87,73,57,30.39,30.25,30.01,10,10,10,13,7,,0.00,0,,46
2011-12-27,39,36,32,36,33,28,93,87,70,30.01,29.79,29.61,10,7,1,21,9,26,0.49,8,,263
2011-12-28,41,34,28,30,28,25,93,78,61,30.14,30.07,30.00,10,10,10,9,6,,0.00,2,,193
2011-12-29,55,42,30,37,33,27,87,71,51,30.00,29.87,29.75,10,10,10,23,9,30,0.00,1,,150
2011-12-30,55,50,44,45,40,34,87,67,54,29.85,29.74,29.64,10,10,10,25,12,34,0.00,6,,176
2011-12-31,50,44,39,37,36,34,87,70,62,30.12,30.01,29.86,10,10,9,20,11,24,0.00,5,,152